CheckWX is a tool to help pilots better visualize weather data.  It is not intended as a substitute for an official pre-flight weather briefing.

09:10:41 UTC

11R METAR
Brenham Municipal Airport
Brenham, Texas, USA
Current

16 mins ago

K11R 220855Z AUTO 16009KT 7SM OVC013 27/26 A2973 RMK AO2 T02660257
Observed
May-22 @ 08:55 UTC
Wind
  • 160° at 9 KTS
Visibility
7 SM
Flight Rules
MVFR
Cloud Levels
  • Overcast at 1,300' AGL
Temperature
27°C / 81°F
Dewpoint
26°C / 79°F
Heat Index
32°C / 89°F
Humidity
94%
Altimeter
29.73" Hg
Pressure
1006.82 hPa
Previous

36 mins ago

K11R 220835Z AUTO 16008KT 7SM OVC013 27/26 A2973 RMK AO2 T02670258
Observed
May-22 @ 08:35 UTC
Wind
  • 160° at 8 KTS
Visibility
7 SM
Flight Rules
MVFR
Cloud Levels
  • Overcast at 1,300' AGL
Temperature
27°C / 81°F
Dewpoint
26°C / 79°F
Heat Index
32°C / 89°F
Humidity
94%
Altimeter
29.73" Hg
Pressure
1006.82 hPa
Previous

56 mins ago

K11R 220815Z AUTO 17006KT 7SM OVC013 27/26 A2973 RMK AO2 T02670258
Observed
May-22 @ 08:15 UTC
Wind
  • 170° at 6 KTS
Visibility
7 SM
Flight Rules
MVFR
Cloud Levels
  • Overcast at 1,300' AGL
Temperature
27°C / 81°F
Dewpoint
26°C / 79°F
Heat Index
32°C / 89°F
Humidity
94%
Altimeter
29.73" Hg
Pressure
1006.82 hPa